createdAt,value
2018-12-29T00:01:00.900Z,27.20
2018-12-29T00:03:31.473Z,24.30
2018-12-29T00:06:02.151Z,21.80
2018-12-29T00:08:33.989Z,22.00
2018-12-29T00:11:04.805Z,24.27
2018-12-29T00:13:35.444Z,25.83
2018-12-29T00:16:06.334Z,24.27
2018-12-29T00:18:37.168Z,26.20
2018-12-29T00:21:08.075Z,25.60
2018-12-29T00:23:38.814Z,24.13
2018-12-29T00:26:09.399Z,26.03
2018-12-29T00:28:40.259Z,29.93
2018-12-29T00:31:10.901Z,23.90
2018-12-29T00:33:41.466Z,26.60
2018-12-29T00:36:12.585Z,24.40
2018-12-29T00:38:43.201Z,19.30
2018-12-29T00:41:14.038Z,25.37
2018-12-29T00:43:44.544Z,22.43
2018-12-29T00:46:15.357Z,23.67
2018-12-29T00:48:45.807Z,23.20
2018-12-29T00:51:16.669Z,23.33
2018-12-29T00:53:47.181Z,24.17
2018-12-29T00:56:18.101Z,26.40
2018-12-29T00:58:48.627Z,21.40
2018-12-29T01:01:19.389Z,24.13
2018-12-29T01:03:49.866Z,22.00
2018-12-29T01:06:20.918Z,24.33
2018-12-29T01:08:51.346Z,22.90
2018-12-29T01:11:22.342Z,18.87
2018-12-29T01:13:52.819Z,22.83
2018-12-29T01:16:23.336Z,18.47
2018-12-29T01:18:53.946Z,21.93
2018-12-29T01:21:24.668Z,19.27
2018-12-29T01:23:55.095Z,21.43
2018-12-29T01:26:26.340Z,19.87
2018-12-29T01:28:56.807Z,18.73
2018-12-29T01:31:27.642Z,19.53
2018-12-29T01:33:58.130Z,20.07
2018-12-29T01:36:28.844Z,18.23
2018-12-29T01:38:59.818Z,20.13
2018-12-29T01:41:30.386Z,20.80
2018-12-29T01:44:00.789Z,18.37
2018-12-29T01:46:31.389Z,18.40
2018-12-29T01:49:02.196Z,17.37
2018-12-29T01:51:32.880Z,16.03
2018-12-29T01:54:03.388Z,16.40
2018-12-29T01:56:34.098Z,16.37
2018-12-29T01:59:04.670Z,17.13
2018-12-29T02:01:35.120Z,18.57
2018-12-29T02:04:05.830Z,17.60
2018-12-29T02:06:36.308Z,15.63
2018-12-29T02:09:07.404Z,18.43
2018-12-29T02:11:38.064Z,14.90
2018-12-29T02:14:08.502Z,17.07
2018-12-29T02:16:39.106Z,15.63
2018-12-29T02:19:09.487Z,15.40
2018-12-29T02:21:40.140Z,15.47
2018-12-29T02:24:10.679Z,15.37
2018-12-29T02:26:41.485Z,13.43
2018-12-29T02:29:12.321Z,17.20
2018-12-29T02:31:43.158Z,17.50
2018-12-29T02:34:13.909Z,15.53
2018-12-29T02:36:44.450Z,12.73
2018-12-29T02:39:14.964Z,13.47
2018-12-29T02:41:45.859Z,15.20
2018-12-29T02:44:16.347Z,14.20
2018-12-29T02:46:47.283Z,14.63
2018-12-29T02:49:18.172Z,14.60
2018-12-29T02:51:48.761Z,14.63
2018-12-29T02:54:19.388Z,16.30
2018-12-29T02:56:49.872Z,12.93
2018-12-29T02:59:20.360Z,15.20
2018-12-29T03:01:50.869Z,15.00
2018-12-29T03:04:21.293Z,14.30
2018-12-29T03:06:51.925Z,14.63
2018-12-29T03:09:22.755Z,14.47
2018-12-29T03:11:53.573Z,13.30
2018-12-29T03:14:24.335Z,13.90
2018-12-29T03:16:54.756Z,14.97
2018-12-29T03:19:25.403Z,11.70
2018-12-29T03:21:55.853Z,14.37
2018-12-29T03:24:26.360Z,12.53
2018-12-29T03:26:56.739Z,13.57
2018-12-29T03:29:27.339Z,15.53
2018-12-29T03:31:57.769Z,13.70
2018-12-29T03:34:28.398Z,16.60
2018-12-29T03:36:59.094Z,11.90
2018-12-29T03:39:29.503Z,14.23
2018-12-29T03:42:00.156Z,9.70
2018-12-29T03:44:30.822Z,15.37
2018-12-29T03:47:01.306Z,12.43
2018-12-29T03:49:35.614Z,11.97
2018-12-29T03:52:06.226Z,12.90
2018-12-29T03:54:37.316Z,13.93
2018-12-29T03:57:07.731Z,12.73
2018-12-29T03:59:38.149Z,12.77
2018-12-29T04:02:08.637Z,11.03
2018-12-29T04:04:39.359Z,11.43
2018-12-29T04:07:09.947Z,11.63
2018-12-29T04:09:40.815Z,15.17
2018-12-29T04:12:20.077Z,11.20
2018-12-29T04:14:50.781Z,11.83
2018-12-29T04:17:21.224Z,12.93
2018-12-29T04:19:52.121Z,9.37
2018-12-29T04:22:22.623Z,14.43
2018-12-29T04:24:53.493Z,11.30
2018-12-29T04:27:23.989Z,11.53
2018-12-29T04:29:55.585Z,12.40
2018-12-29T04:32:26.078Z,12.07
2018-12-29T04:34:56.647Z,9.40
2018-12-29T04:37:27.263Z,11.97
2018-12-29T04:39:57.911Z,9.60
2018-12-29T04:42:28.581Z,9.43
2018-12-29T04:44:59.249Z,11.47
2018-12-29T04:47:31.035Z,13.03
2018-12-29T04:50:01.673Z,9.43
2018-12-29T04:52:32.227Z,11.57
2018-12-29T04:55:02.719Z,11.20
2018-12-29T04:57:33.511Z,9.60
2018-12-29T05:00:04.511Z,11.43
2018-12-29T05:02:35.179Z,11.07
2018-12-29T05:05:06.212Z,9.30
2018-12-29T05:07:36.648Z,11.20
2018-12-29T05:10:07.223Z,10.93
2018-12-29T05:12:38.016Z,12.17
2018-12-29T05:15:08.691Z,12.37
2018-12-29T05:17:39.340Z,10.63
2018-12-29T05:20:10.191Z,11.97
2018-12-29T05:22:40.686Z,10.83
2018-12-29T05:25:11.351Z,12.53
2018-12-29T05:27:42.233Z,12.80
2018-12-29T05:30:13.369Z,10.07
2018-12-29T05:32:44.203Z,13.17
2018-12-29T05:35:15.360Z,11.73
2018-12-29T05:37:46.150Z,11.60
2018-12-29T05:40:16.718Z,11.17
2018-12-29T05:42:47.292Z,10.07
2018-12-29T05:45:18.356Z,10.60
2018-12-29T05:47:49.158Z,11.20
2018-12-29T05:50:19.818Z,10.20
2018-12-29T05:52:51.811Z,12.20
2018-12-29T05:55:22.660Z,10.37
2018-12-29T05:57:53.246Z,9.77
2018-12-29T06:00:23.948Z,12.73
2018-12-29T06:02:54.724Z,11.43
2018-12-29T06:05:25.326Z,10.80
2018-12-29T06:07:56.270Z,11.60
2018-12-29T06:10:27.090Z,10.27
2018-12-29T06:12:57.595Z,10.90
2018-12-29T06:15:28.140Z,11.20
2018-12-29T06:18:16.247Z,11.93
2018-12-29T06:20:46.863Z,10.80
2018-12-29T06:23:17.697Z,11.73
2018-12-29T06:25:48.662Z,9.13
2018-12-29T06:28:19.528Z,11.97
2018-12-29T06:30:50.059Z,13.07
2018-12-29T06:33:20.611Z,11.03
2018-12-29T06:35:52.131Z,11.83
2018-12-29T06:38:22.918Z,11.00
2018-12-29T06:40:53.423Z,9.73
2018-12-29T06:43:23.991Z,8.77
2018-12-29T06:45:54.931Z,12.27
2018-12-29T06:48:25.437Z,10.53
2018-12-29T06:50:56.239Z,8.73
2018-12-29T06:53:26.702Z,9.20
2018-12-29T06:55:57.071Z,9.60
2018-12-29T06:58:27.603Z,9.37
2018-12-29T07:00:58.619Z,8.63
2018-12-29T07:03:29.385Z,7.47
2018-12-29T07:06:00.306Z,11.27
2018-12-29T07:08:31.015Z,9.33
2018-12-29T07:11:01.540Z,11.77
2018-12-29T07:13:32.296Z,8.97
2018-12-29T07:16:03.134Z,10.30
2018-12-29T07:18:33.864Z,10.53
2018-12-29T07:21:04.416Z,9.73
2018-12-29T07:23:35.098Z,8.53
2018-12-29T07:26:05.754Z,10.73
2018-12-29T07:28:36.340Z,10.60
2018-12-29T07:31:06.770Z,8.37
2018-12-29T07:33:37.543Z,9.40
2018-12-29T07:36:08.143Z,9.17
2018-12-29T07:38:38.522Z,7.90
2018-12-29T07:41:09.101Z,10.93
2018-12-29T07:43:39.795Z,11.40
2018-12-29T07:46:10.752Z,12.23
2018-12-29T07:48:41.565Z,8.10
2018-12-29T07:51:12.133Z,10.73
2018-12-29T07:53:43.901Z,9.27
2018-12-29T07:56:14.693Z,7.27
2018-12-29T07:58:45.410Z,8.97
2018-12-29T08:01:16.364Z,8.27
2018-12-29T08:03:46.899Z,10.00
2018-12-29T08:06:17.883Z,10.30
2018-12-29T08:08:48.404Z,7.90
2018-12-29T08:11:18.893Z,8.73
2018-12-29T08:13:49.370Z,9.70
2018-12-29T08:16:19.820Z,11.13
2018-12-29T08:18:50.515Z,10.27
2018-12-29T08:21:22.800Z,15.03
2018-12-29T08:23:53.495Z,10.87
2018-12-29T08:26:24.628Z,9.53
2018-12-29T08:28:55.088Z,12.10
2018-12-29T08:31:25.533Z,13.30
2018-12-29T08:33:56.190Z,13.73
2018-12-29T08:36:26.779Z,12.73
2018-12-29T08:38:57.452Z,12.00
2018-12-29T08:41:28.120Z,11.00
2018-12-29T08:43:58.671Z,14.20
2018-12-29T08:46:29.314Z,15.67
2018-12-29T08:48:59.873Z,14.27
2018-12-29T08:51:31.306Z,10.63
2018-12-29T08:54:02.060Z,12.33
2018-12-29T08:56:32.840Z,11.80
2018-12-29T08:59:03.579Z,11.97
2018-12-29T09:01:34.057Z,12.53
2018-12-29T09:04:04.468Z,9.57
2018-12-29T09:06:35.026Z,8.07
2018-12-29T09:09:07.743Z,8.40
2018-12-29T09:11:38.293Z,9.17
2018-12-29T09:14:08.707Z,8.03
2018-12-29T09:16:39.404Z,6.80
2018-12-29T09:19:09.959Z,9.57
2018-12-29T09:21:40.505Z,8.83
2018-12-29T09:24:11.299Z,10.20
2018-12-29T09:26:41.917Z,8.67
2018-12-29T09:29:12.462Z,9.57
2018-12-29T09:31:42.953Z,12.53
2018-12-29T09:34:13.763Z,8.30
2018-12-29T09:36:44.231Z,10.83
2018-12-29T09:39:15.234Z,10.57
2018-12-29T09:41:45.896Z,10.30
2018-12-29T09:44:16.476Z,10.47
2018-12-29T09:46:47.249Z,8.93
2018-12-29T09:49:18.197Z,7.90
2018-12-29T09:51:49.302Z,8.77
2018-12-29T09:54:20.014Z,10.40
2018-12-29T09:56:50.491Z,7.93
2018-12-29T09:59:21.314Z,8.47
2018-12-29T10:01:52.151Z,7.73
2018-12-29T10:04:23.098Z,9.73
2018-12-29T10:06:53.499Z,10.17
2018-12-29T10:09:24.544Z,6.73
2018-12-29T10:11:55.232Z,6.87
2018-12-29T10:14:25.627Z,8.97
2018-12-29T10:16:56.140Z,8.40
2018-12-29T10:19:26.987Z,8.53
2018-12-29T10:21:57.521Z,12.17
2018-12-29T10:24:28.102Z,9.30
2018-12-29T10:26:59.089Z,7.80
2018-12-29T10:29:29.871Z,9.83
2018-12-29T10:32:00.495Z,9.17
2018-12-29T10:34:31.512Z,8.20
2018-12-29T10:37:01.901Z,9.30
2018-12-29T10:39:32.501Z,9.27
2018-12-29T10:42:03.139Z,11.93
2018-12-29T10:44:34.143Z,10.67
2018-12-29T10:47:04.823Z,10.00
2018-12-29T10:49:35.712Z,12.97
2018-12-29T10:52:06.636Z,10.70
2018-12-29T10:54:37.285Z,11.07
2018-12-29T10:57:07.874Z,12.97
2018-12-29T10:59:38.452Z,12.67
2018-12-29T11:02:09.951Z,11.43
2018-12-29T11:04:40.944Z,11.13
2018-12-29T11:07:11.664Z,10.43
2018-12-29T11:09:42.133Z,11.17
2018-12-29T11:12:13.141Z,10.80
2018-12-29T11:14:43.967Z,14.50
2018-12-29T11:17:15.193Z,12.67
2018-12-29T11:19:45.950Z,12.53
2018-12-29T11:22:16.955Z,12.60
2018-12-29T11:24:47.591Z,13.27
2018-12-29T11:27:18.342Z,13.37
2018-12-29T11:29:49.120Z,11.80
2018-12-29T11:32:19.934Z,13.20
2018-12-29T11:34:50.774Z,12.87
2018-12-29T11:37:38.601Z,13.73
2018-12-29T11:40:09.672Z,13.23
2018-12-29T11:42:40.298Z,16.63
2018-12-29T11:45:11.022Z,12.33
2018-12-29T11:47:49.636Z,12.93
2018-12-29T11:50:14.865Z,14.23
2018-12-29T11:52:45.543Z,13.50
2018-12-29T11:55:16.391Z,16.03
2018-12-29T11:57:47.713Z,15.57
2018-12-29T12:00:18.673Z,14.40
2018-12-29T12:02:49.689Z,15.90
2018-12-29T12:05:20.425Z,18.87
2018-12-29T12:07:51.009Z,16.90
2018-12-29T12:10:22.109Z,15.43
2018-12-29T12:12:52.933Z,12.43
2018-12-29T12:15:23.307Z,15.50
2018-12-29T12:17:57.437Z,15.13
2018-12-29T12:20:26.438Z,13.53
2018-12-29T12:22:57.306Z,14.03
2018-12-29T12:25:28.348Z,12.90
2018-12-29T12:28:00.397Z,14.17
2018-12-29T12:30:31.212Z,13.17
2018-12-29T12:33:02.190Z,17.37
2018-12-29T12:35:32.846Z,14.80
2018-12-29T12:38:03.785Z,17.30
2018-12-29T12:40:34.462Z,16.43
2018-12-29T12:43:06.283Z,13.63
2018-12-29T12:45:36.893Z,12.43
2018-12-29T12:48:07.572Z,12.33
2018-12-29T12:50:38.760Z,15.63
2018-12-29T12:53:09.196Z,13.53
2018-12-29T12:55:40.305Z,13.80
2018-12-29T12:58:11.379Z,15.83
2018-12-29T13:00:42.249Z,14.33
2018-12-29T13:03:13.568Z,13.03
2018-12-29T13:05:44.165Z,13.03
2018-12-29T13:08:14.904Z,11.93
2018-12-29T13:10:45.320Z,10.57
2018-12-29T13:13:16.057Z,10.73
2018-12-29T13:15:46.797Z,13.03
2018-12-29T13:18:17.369Z,11.80
2018-12-29T13:20:47.985Z,10.73
2018-12-29T13:23:18.901Z,11.47
2018-12-29T13:25:49.579Z,9.33
2018-12-29T13:28:20.775Z,9.17
2018-12-29T13:30:51.583Z,9.97
2018-12-29T13:33:22.654Z,11.33
2018-12-29T13:35:53.492Z,10.20
2018-12-29T13:38:24.183Z,10.77
2018-12-29T13:40:54.885Z,10.20
2018-12-29T13:43:25.818Z,10.83
2018-12-29T13:45:56.501Z,14.40
2018-12-29T13:48:27.131Z,11.80
2018-12-29T13:50:57.659Z,12.00
2018-12-29T13:53:28.128Z,12.40
2018-12-29T13:55:59.082Z,9.53
2018-12-29T13:58:30.083Z,8.53
2018-12-29T14:01:00.897Z,13.10
2018-12-29T14:03:31.369Z,9.00
2018-12-29T14:06:01.876Z,10.80
2018-12-29T14:08:32.342Z,9.00
2018-12-29T14:11:02.986Z,11.00
2018-12-29T14:13:33.587Z,8.83
2018-12-29T14:16:04.108Z,9.90
2018-12-29T14:18:34.573Z,10.67
2018-12-29T14:21:05.007Z,11.43
2018-12-29T14:23:35.513Z,13.57
2018-12-29T14:26:06.071Z,12.77
2018-12-29T14:28:36.969Z,11.80
2018-12-29T14:31:07.574Z,13.83
2018-12-29T14:33:38.164Z,13.77
2018-12-29T14:36:08.782Z,14.73
2018-12-29T14:38:39.223Z,14.77
2018-12-29T14:41:09.822Z,13.17
2018-12-29T14:43:40.569Z,15.97
2018-12-29T14:46:11.046Z,14.67
2018-12-29T14:48:41.498Z,14.30
2018-12-29T14:51:11.987Z,12.30
2018-12-29T14:53:42.479Z,17.17
2018-12-29T14:56:13.334Z,14.83
2018-12-29T14:58:43.800Z,16.27
2018-12-29T15:01:14.368Z,19.47
2018-12-29T15:03:45.181Z,18.50
2018-12-29T15:06:15.868Z,20.80
2018-12-29T15:08:46.453Z,20.57
2018-12-29T15:11:17.036Z,23.27
2018-12-29T15:13:47.674Z,25.33
2018-12-29T15:16:18.591Z,25.30
2018-12-29T15:18:49.500Z,24.80
2018-12-29T15:21:20.381Z,29.27
2018-12-29T15:23:51.304Z,27.97
2018-12-29T15:26:21.968Z,27.47
2018-12-29T15:28:52.447Z,27.30
2018-12-29T15:31:23.594Z,28.80
2018-12-29T15:33:54.348Z,32.50
2018-12-29T15:36:25.299Z,30.30
2018-12-29T15:38:55.756Z,28.07
2018-12-29T15:41:26.787Z,29.57
2018-12-29T15:43:57.478Z,30.63
2018-12-29T15:46:28.266Z,32.17
2018-12-29T15:48:58.732Z,30.37
2018-12-29T15:51:29.535Z,29.70
2018-12-29T15:54:00.072Z,29.37
2018-12-29T15:56:31.092Z,29.70
2018-12-29T15:59:01.601Z,28.73
2018-12-29T16:01:32.475Z,29.73
2018-12-29T16:04:03.078Z,32.73
2018-12-29T16:06:33.842Z,31.73
2018-12-29T16:09:05.843Z,30.80
2018-12-29T16:11:36.918Z,30.77
2018-12-29T16:14:07.603Z,28.07
2018-12-29T16:16:38.489Z,33.77
2018-12-29T16:19:08.909Z,31.10
2018-12-29T16:21:39.389Z,31.40
2018-12-29T16:24:09.813Z,31.17
2018-12-29T16:26:40.527Z,30.43
2018-12-29T16:29:10.987Z,33.03
2018-12-29T16:31:41.716Z,30.60
2018-12-29T16:34:14.027Z,30.07
2018-12-29T16:36:44.527Z,31.80
2018-12-29T16:39:15.336Z,32.17
2018-12-29T16:41:45.955Z,33.17
2018-12-29T16:44:16.725Z,32.43
2018-12-29T16:46:47.795Z,34.60
2018-12-29T16:49:18.524Z,35.37
2018-12-29T16:51:49.106Z,37.37
2018-12-29T16:54:19.914Z,42.63
2018-12-29T16:56:50.603Z,39.10
2018-12-29T16:59:21.070Z,36.80
2018-12-29T17:01:51.906Z,33.80
2018-12-29T17:04:23.881Z,37.07
2018-12-29T17:06:54.554Z,39.17
2018-12-29T17:09:25.568Z,42.27
2018-12-29T17:11:56.851Z,37.87
2018-12-29T17:14:27.801Z,42.50
2018-12-29T17:16:58.627Z,41.97
2018-12-29T17:19:29.638Z,42.10
2018-12-29T17:22:00.607Z,44.50
2018-12-29T17:24:31.098Z,42.80
2018-12-29T17:27:02.098Z,50.33
2018-12-29T17:29:32.676Z,42.83
2018-12-29T17:32:03.743Z,42.80
2018-12-29T17:34:35.468Z,42.50
2018-12-29T17:37:06.166Z,44.97
2018-12-29T17:39:37.574Z,43.10
2018-12-29T17:42:09.719Z,45.00
2018-12-29T17:44:42.175Z,48.00
2018-12-29T17:47:12.552Z,49.57
2018-12-29T17:49:43.766Z,49.07
2018-12-29T17:52:14.184Z,50.30
2018-12-29T17:54:45.254Z,53.93
2018-12-29T17:57:15.927Z,53.83
2018-12-29T17:59:46.688Z,56.90
2018-12-29T18:02:17.856Z,54.37
2018-12-29T18:04:50.073Z,52.63
2018-12-29T18:07:23.355Z,51.13
2018-12-29T18:09:57.305Z,53.80
2018-12-29T18:12:29.135Z,53.97
2018-12-29T18:15:01.811Z,52.03
2018-12-29T18:17:34.451Z,57.47
2018-12-29T18:20:06.127Z,55.50
2018-12-29T18:22:37.295Z,50.13
2018-12-29T18:25:08.545Z,54.90
2018-12-29T18:27:39.431Z,57.60
2018-12-29T18:30:10.653Z,55.63
2018-12-29T18:32:42.129Z,49.80
2018-12-29T18:35:16.251Z,53.23
2018-12-29T18:37:48.478Z,58.57
2018-12-29T18:40:18.985Z,54.97
2018-12-29T18:42:50.252Z,58.50
2018-12-29T18:45:20.962Z,55.90
2018-12-29T18:47:51.967Z,53.77
2018-12-29T18:50:22.472Z,55.67
2018-12-29T18:52:53.110Z,56.37
2018-12-29T18:55:25.254Z,60.10
2018-12-29T18:57:56.993Z,55.37
2018-12-29T19:00:27.743Z,62.23
2018-12-29T19:02:59.793Z,60.87
2018-12-29T19:05:30.625Z,57.57
2018-12-29T19:08:01.661Z,60.30
2018-12-29T19:10:33.536Z,64.80
2018-12-29T19:13:04.769Z,56.27
2018-12-29T19:15:35.875Z,62.07
2018-12-29T19:18:07.708Z,58.00
2018-12-29T19:20:40.588Z,62.27
2018-12-29T19:23:12.021Z,61.53
2018-12-29T19:25:42.848Z,61.27
2018-12-29T19:28:16.370Z,67.50
2018-12-29T19:30:50.457Z,64.40
2018-12-29T19:33:21.986Z,59.27
2018-12-29T19:35:53.367Z,63.13
2018-12-29T19:38:26.606Z,63.07
2018-12-29T19:40:59.505Z,59.57
2018-12-29T19:43:30.969Z,56.00
2018-12-29T19:46:02.275Z,57.27
2018-12-29T19:48:34.686Z,53.53
2018-12-29T19:51:06.951Z,60.80
2018-12-29T19:53:38.109Z,52.53
2018-12-29T19:56:08.871Z,57.97
2018-12-29T19:58:39.359Z,52.47
2018-12-29T20:01:10.531Z,58.57
2018-12-29T20:03:40.940Z,58.37
2018-12-29T20:06:12.470Z,59.23
2018-12-29T20:08:45.594Z,54.77
2018-12-29T20:11:16.676Z,56.67
2018-12-29T20:13:47.086Z,56.83
2018-12-29T20:16:18.111Z,59.93
2018-12-29T20:18:48.848Z,66.83
2018-12-29T20:21:20.697Z,70.57
2018-12-29T20:23:51.342Z,66.93
2018-12-29T20:26:22.270Z,68.27
2018-12-29T20:28:53.288Z,71.13
2018-12-29T20:31:25.575Z,71.83
2018-12-29T20:33:59.078Z,77.07
2018-12-29T20:36:29.760Z,70.50
2018-12-29T20:39:00.914Z,63.67
2018-12-29T20:41:35.637Z,69.63
2018-12-29T20:44:06.672Z,69.10
2018-12-29T20:46:37.515Z,75.57
2018-12-29T20:49:09.945Z,69.93
2018-12-29T20:51:41.034Z,73.30
2018-12-29T20:54:11.484Z,65.23
2018-12-29T20:56:42.875Z,65.73
2018-12-29T20:59:15.905Z,67.43
2018-12-29T21:01:47.010Z,65.97
2018-12-29T21:04:18.034Z,58.90
2018-12-29T21:06:48.970Z,56.70
2018-12-29T21:09:19.722Z,59.63
2018-12-29T21:11:50.324Z,59.37
2018-12-29T21:14:21.349Z,60.33
2018-12-29T21:16:52.166Z,60.77
2018-12-29T21:19:22.866Z,63.57
2018-12-29T21:21:55.148Z,57.67
2018-12-29T21:24:25.991Z,57.03
2018-12-29T21:26:56.936Z,55.60
2018-12-29T21:29:28.016Z,54.10
2018-12-29T21:31:58.956Z,54.83
2018-12-29T21:34:29.774Z,54.93
2018-12-29T21:37:00.630Z,55.00
2018-12-29T21:39:32.027Z,59.10
2018-12-29T21:42:02.929Z,55.27
2018-12-29T21:44:33.415Z,58.33
2018-12-29T21:47:04.349Z,57.87
2018-12-29T21:49:35.090Z,52.10
2018-12-29T21:52:06.244Z,50.27
2018-12-29T21:54:37.054Z,51.53
2018-12-29T21:57:08.131Z,48.93
2018-12-29T21:59:38.967Z,51.63
2018-12-29T22:02:09.417Z,49.93
2018-12-29T22:04:40.374Z,51.87
2018-12-29T22:07:11.842Z,44.37
2018-12-29T22:09:42.343Z,51.60
2018-12-29T22:12:13.559Z,48.27
2018-12-29T22:14:44.076Z,46.10
2018-12-29T22:17:14.760Z,43.83
2018-12-29T22:19:45.372Z,44.83
2018-12-29T22:22:16.459Z,46.03
2018-12-29T22:24:48.799Z,46.17
2018-12-29T22:27:20.001Z,49.93
2018-12-29T22:29:50.507Z,51.77
2018-12-29T22:32:21.278Z,49.07
2018-12-29T22:34:51.892Z,44.60
2018-12-29T22:37:22.551Z,50.00
2018-12-29T22:39:53.283Z,49.93
2018-12-29T22:42:24.220Z,47.37
2018-12-29T22:44:55.233Z,53.77
2018-12-29T22:47:26.309Z,48.00
2018-12-29T22:49:56.904Z,51.77
2018-12-29T22:52:27.852Z,50.13
2018-12-29T22:54:58.818Z,47.83
2018-12-29T22:57:29.427Z,53.47
2018-12-29T23:00:00.119Z,43.87
2018-12-29T23:02:31.196Z,50.40
2018-12-29T23:05:01.660Z,45.20
2018-12-29T23:07:33.289Z,46.70
2018-12-29T23:10:03.714Z,51.53
2018-12-29T23:12:34.542Z,55.70
2018-12-29T23:15:05.707Z,50.70
2018-12-29T23:17:36.356Z,51.37
2018-12-29T23:20:06.893Z,48.73
2018-12-29T23:22:37.586Z,53.27
2018-12-29T23:25:08.660Z,49.57
2018-12-29T23:27:39.449Z,52.33
2018-12-29T23:30:10.294Z,45.97
2018-12-29T23:32:40.959Z,48.23
2018-12-29T23:35:11.435Z,48.07
2018-12-29T23:37:41.878Z,47.00
2018-12-29T23:40:12.429Z,44.07
2018-12-29T23:42:43.039Z,43.10
2018-12-29T23:45:13.566Z,43.73
2018-12-29T23:47:45.330Z,45.93
2018-12-29T23:50:16.176Z,50.17
2018-12-29T23:52:47.373Z,46.63
2018-12-29T23:55:18.217Z,44.27
2018-12-29T23:57:49.962Z,43.57
